sensor_id;sensor_type;location;lat;lon;timestamp;noise_LAeq;noise_LA_min;noise_LA_max;noise_LA01;noise_LA95
46749;Laerm;33775;47.992;11.864;2024-01-06T00:02:12;35.91;28.67;39.46;;
46749;Laerm;33775;47.992;11.864;2024-01-06T00:04:38;35.91;23.55;39.92;;
46749;Laerm;33775;47.992;11.864;2024-01-06T00:07:03;35.90;28.67;39.46;;
46749;Laerm;33775;47.992;11.864;2024-01-06T00:09:28;35.96;26.91;39.58;;
46749;Laerm;33775;47.992;11.864;2024-01-06T00:11:53;35.91;23.90;39.08;;
46749;Laerm;33775;47.992;11.864;2024-01-06T00:14:18;35.95;5.00;39.46;;
46749;Laerm;33775;47.992;11.864;2024-01-06T00:16:44;35.92;28.32;47.02;;
46749;Laerm;33775;47.992;11.864;2024-01-06T00:19:09;35.88;28.67;39.08;;
46749;Laerm;33775;47.992;11.864;2024-01-06T00:21:34;35.90;28.67;39.46;;
46749;Laerm;33775;47.992;11.864;2024-01-06T00:24:00;35.92;28.67;39.21;;
46749;Laerm;33775;47.992;11.864;2024-01-06T00:26:25;35.91;28.67;39.21;;
46749;Laerm;33775;47.992;11.864;2024-01-06T00:28:50;35.92;28.32;39.21;;
46749;Laerm;33775;47.992;11.864;2024-01-06T00:31:16;35.91;26.91;39.58;;
46749;Laerm;33775;47.992;11.864;2024-01-06T00:33:42;35.93;26.91;39.58;;
46749;Laerm;33775;47.992;11.864;2024-01-06T00:36:07;35.91;26.91;39.34;;
46749;Laerm;33775;47.992;11.864;2024-01-06T00:38:33;35.91;26.91;39.70;;
46749;Laerm;33775;47.992;11.864;2024-01-06T00:40:59;35.91;26.91;39.08;;
46749;Laerm;33775;47.992;11.864;2024-01-06T00:43:24;35.90;26.91;39.34;;
46749;Laerm;33775;47.992;11.864;2024-01-06T00:45:49;35.93;26.91;39.46;;
46749;Laerm;33775;47.992;11.864;2024-01-06T00:48:15;35.94;23.90;39.58;;
46749;Laerm;33775;47.992;11.864;2024-01-06T00:50:40;35.94;28.67;39.34;;
46749;Laerm;33775;47.992;11.864;2024-01-06T00:53:05;35.93;28.67;39.34;;
46749;Laerm;33775;47.992;11.864;2024-01-06T00:55:30;35.97;26.91;39.21;;
46749;Laerm;33775;47.992;11.864;2024-01-06T00:57:55;35.92;26.91;39.21;;
46749;Laerm;33775;47.992;11.864;2024-01-06T01:00:20;35.97;5.00;39.21;;
46749;Laerm;33775;47.992;11.864;2024-01-06T01:02:47;35.95;23.90;39.46;;
46749;Laerm;33775;47.992;11.864;2024-01-06T01:05:12;35.94;26.91;39.70;;
46749;Laerm;33775;47.992;11.864;2024-01-06T01:07:38;35.96;26.91;39.58;;
46749;Laerm;33775;47.992;11.864;2024-01-06T01:10:03;35.95;26.91;39.34;;
46749;Laerm;33775;47.992;11.864;2024-01-06T01:12:29;35.94;28.67;39.58;;
46749;Laerm;33775;47.992;11.864;2024-01-06T01:14:54;35.93;26.91;39.46;;
46749;Laerm;33775;47.992;11.864;2024-01-06T01:17:20;35.91;28.67;39.34;;
46749;Laerm;33775;47.992;11.864;2024-01-06T01:19:45;35.93;26.91;39.08;;
46749;Laerm;33775;47.992;11.864;2024-01-06T01:22:10;35.94;26.91;39.70;;
46749;Laerm;33775;47.992;11.864;2024-01-06T01:24:36;35.96;28.67;39.34;;
46749;Laerm;33775;47.992;11.864;2024-01-06T01:27:01;35.98;26.91;39.34;;
46749;Laerm;33775;47.992;11.864;2024-01-06T01:29:26;35.95;28.67;39.34;;
46749;Laerm;33775;47.992;11.864;2024-01-06T01:31:51;35.91;26.91;39.08;;
46749;Laerm;33775;47.992;11.864;2024-01-06T01:34:17;35.93;23.90;39.21;;
46749;Laerm;33775;47.992;11.864;2024-01-06T01:36:42;35.93;28.67;39.21;;
46749;Laerm;33775;47.992;11.864;2024-01-06T01:39:07;35.92;26.91;39.58;;
46749;Laerm;33775;47.992;11.864;2024-01-06T01:41:33;35.95;28.67;39.46;;
46749;Laerm;33775;47.992;11.864;2024-01-06T01:43:58;35.94;28.67;39.21;;
46749;Laerm;33775;47.992;11.864;2024-01-06T01:46:27;35.99;28.67;39.46;;
46749;Laerm;33775;47.992;11.864;2024-01-06T01:48:55;35.92;26.91;39.34;;
46749;Laerm;33775;47.992;11.864;2024-01-06T01:51:21;35.93;26.91;39.34;;
46749;Laerm;33775;47.992;11.864;2024-01-06T01:53:47;35.98;29.92;39.46;;
46749;Laerm;33775;47.992;11.864;2024-01-06T01:56:12;35.97;28.67;39.21;;
46749;Laerm;33775;47.992;11.864;2024-01-06T01:58:37;36.01;28.67;39.34;;
46749;Laerm;33775;47.992;11.864;2024-01-06T02:01:02;35.94;26.91;39.46;;
46749;Laerm;33775;47.992;11.864;2024-01-06T02:03:29;35.97;26.91;39.21;;
46749;Laerm;33775;47.992;11.864;2024-01-06T02:05:55;35.96;28.67;39.81;;
46749;Laerm;33775;47.992;11.864;2024-01-06T02:08:20;35.98;28.67;39.58;;
46749;Laerm;33775;47.992;11.864;2024-01-06T02:10:45;35.95;26.91;39.21;;
46749;Laerm;33775;47.992;11.864;2024-01-06T02:13:11;35.99;28.67;39.21;;
46749;Laerm;33775;47.992;11.864;2024-01-06T02:15:36;35.99;26.91;38.95;;
46749;Laerm;33775;47.992;11.864;2024-01-06T02:18:02;35.98;5.00;39.21;;
46749;Laerm;33775;47.992;11.864;2024-01-06T02:20:28;35.97;29.92;39.70;;
46749;Laerm;33775;47.992;11.864;2024-01-06T02:22:54;35.97;28.67;39.21;;
46749;Laerm;33775;47.992;11.864;2024-01-06T02:25:19;36.02;26.91;39.92;;
46749;Laerm;33775;47.992;11.864;2024-01-06T02:27:44;36.09;26.91;39.34;;
46749;Laerm;33775;47.992;11.864;2024-01-06T02:30:09;36.09;26.91;39.34;;
46749;Laerm;33775;47.992;11.864;2024-01-06T02:32:35;36.07;29.57;39.34;;
46749;Laerm;33775;47.992;11.864;2024-01-06T02:35:00;36.06;29.92;39.35;;
46749;Laerm;33775;47.992;11.864;2024-01-06T02:37:25;36.06;28.67;39.34;;
46749;Laerm;33775;47.992;11.864;2024-01-06T02:39:51;36.08;28.67;39.34;;
46749;Laerm;33775;47.992;11.864;2024-01-06T02:42:16;36.09;28.67;39.58;;
46749;Laerm;33775;47.992;11.864;2024-01-06T02:44:41;36.09;26.91;39.08;;
46749;Laerm;33775;47.992;11.864;2024-01-06T02:47:06;36.09;28.67;39.81;;
46749;Laerm;33775;47.992;11.864;2024-01-06T02:49:31;36.09;28.67;39.70;;
46749;Laerm;33775;47.992;11.864;2024-01-06T02:51:57;36.09;29.92;39.46;;
46749;Laerm;33775;47.992;11.864;2024-01-06T02:54:22;36.12;23.90;39.21;;
46749;Laerm;33775;47.992;11.864;2024-01-06T02:56:47;36.11;23.90;39.46;;
46749;Laerm;33775;47.992;11.864;2024-01-06T02:59:12;36.08;26.91;39.46;;
46749;Laerm;33775;47.992;11.864;2024-01-06T03:01:37;36.08;26.56;39.21;;
46749;Laerm;33775;47.992;11.864;2024-01-06T03:04:02;36.07;28.67;39.34;;
46749;Laerm;33775;47.992;11.864;2024-01-06T03:06:28;36.07;28.67;39.34;;
46749;Laerm;33775;47.992;11.864;2024-01-06T03:08:53;36.07;23.90;39.08;;
46749;Laerm;33775;47.992;11.864;2024-01-06T03:11:18;36.06;26.91;39.34;;
46749;Laerm;33775;47.992;11.864;2024-01-06T03:13:43;36.07;29.57;39.34;;
46749;Laerm;33775;47.992;11.864;2024-01-06T03:16:09;36.12;26.91;39.34;;
46749;Laerm;33775;47.992;11.864;2024-01-06T03:18:36;36.09;28.67;39.70;;
46749;Laerm;33775;47.992;11.864;2024-01-06T03:21:01;36.15;28.32;39.34;;
46749;Laerm;33775;47.992;11.864;2024-01-06T03:23:26;36.13;29.92;39.08;;
46749;Laerm;33775;47.992;11.864;2024-01-06T03:25:51;36.11;28.67;38.95;;
46749;Laerm;33775;47.992;11.864;2024-01-06T03:28:16;36.10;28.67;40.03;;
46749;Laerm;33775;47.992;11.864;2024-01-06T03:30:42;36.08;26.91;39.46;;
46749;Laerm;33775;47.992;11.864;2024-01-06T03:33:07;36.08;28.67;39.81;;
46749;Laerm;33775;47.992;11.864;2024-01-06T03:35:32;36.04;28.67;39.46;;
46749;Laerm;33775;47.992;11.864;2024-01-06T03:37:57;36.03;5.00;39.08;;
46749;Laerm;33775;47.992;11.864;2024-01-06T03:40:22;36.04;28.67;39.46;;
46749;Laerm;33775;47.992;11.864;2024-01-06T03:42:48;36.10;28.67;39.21;;
46749;Laerm;33775;47.992;11.864;2024-01-06T03:45:13;36.12;28.67;39.21;;
46749;Laerm;33775;47.992;11.864;2024-01-06T03:47:38;36.08;28.67;39.34;;
46749;Laerm;33775;47.992;11.864;2024-01-06T03:50:04;36.10;28.67;39.08;;
46749;Laerm;33775;47.992;11.864;2024-01-06T03:52:29;36.12;29.92;39.46;;
46749;Laerm;33775;47.992;11.864;2024-01-06T03:54:54;36.21;28.67;39.92;;
46749;Laerm;33775;47.992;11.864;2024-01-06T03:57:19;36.16;28.32;39.58;;
46749;Laerm;33775;47.992;11.864;2024-01-06T03:59:45;36.19;26.91;39.58;;
46749;Laerm;33775;47.992;11.864;2024-01-06T04:02:10;36.19;29.92;39.21;;
46749;Laerm;33775;47.992;11.864;2024-01-06T04:04:35;36.20;28.67;39.70;;
46749;Laerm;33775;47.992;11.864;2024-01-06T04:07:00;36.25;28.67;39.58;;
46749;Laerm;33775;47.992;11.864;2024-01-06T04:09:26;36.24;28.67;39.21;;
46749;Laerm;33775;47.992;11.864;2024-01-06T04:11:51;36.17;26.91;39.11;;
46749;Laerm;33775;47.992;11.864;2024-01-06T04:14:17;36.13;5.00;39.21;;
46749;Laerm;33775;47.992;11.864;2024-01-06T04:16:42;36.14;29.92;39.21;;
46749;Laerm;33775;47.992;11.864;2024-01-06T04:19:07;36.12;28.67;39.34;;
46749;Laerm;33775;47.992;11.864;2024-01-06T04:21:33;36.13;28.67;39.34;;
46749;Laerm;33775;47.992;11.864;2024-01-06T04:23:58;36.16;28.67;39.21;;
46749;Laerm;33775;47.992;11.864;2024-01-06T04:26:24;36.13;28.67;39.46;;
46749;Laerm;33775;47.992;11.864;2024-01-06T04:28:49;36.13;29.92;39.34;;
46749;Laerm;33775;47.992;11.864;2024-01-06T04:31:14;36.14;28.67;39.34;;
46749;Laerm;33775;47.992;11.864;2024-01-06T04:33:39;36.16;28.67;39.70;;
46749;Laerm;33775;47.992;11.864;2024-01-06T04:36:05;36.18;28.67;39.21;;
46749;Laerm;33775;47.992;11.864;2024-01-06T04:38:30;36.21;29.92;39.21;;
46749;Laerm;33775;47.992;11.864;2024-01-06T04:40:55;36.24;28.67;39.34;;
46749;Laerm;33775;47.992;11.864;2024-01-06T04:43:21;36.28;28.67;39.34;;
46749;Laerm;33775;47.992;11.864;2024-01-06T04:45:46;36.31;26.91;39.70;;
46749;Laerm;33775;47.992;11.864;2024-01-06T04:48:11;36.36;28.67;39.46;;
46749;Laerm;33775;47.992;11.864;2024-01-06T04:50:36;36.40;23.90;39.21;;
46749;Laerm;33775;47.992;11.864;2024-01-06T04:53:02;36.48;31.68;39.34;;
46749;Laerm;33775;47.992;11.864;2024-01-06T04:55:27;36.54;31.68;39.46;;
46749;Laerm;33775;47.992;11.864;2024-01-06T04:57:53;36.57;31.68;39.21;;
46749;Laerm;33775;47.992;11.864;2024-01-06T05:00:18;36.58;31.68;39.70;;
46749;Laerm;33775;47.992;11.864;2024-01-06T05:02:43;36.61;31.68;39.92;;
46749;Laerm;33775;47.992;11.864;2024-01-06T05:05:09;36.62;30.89;39.46;;
46749;Laerm;33775;47.992;11.864;2024-01-06T05:07:34;36.63;28.67;39.21;;
46749;Laerm;33775;47.992;11.864;2024-01-06T05:09:59;36.61;32.35;39.70;;
46749;Laerm;33775;47.992;11.864;2024-01-06T05:12:24;36.53;30.89;39.46;;
46749;Laerm;33775;47.992;11.864;2024-01-06T05:14:50;36.55;30.89;39.34;;
46749;Laerm;33775;47.992;11.864;2024-01-06T05:17:15;36.53;28.67;39.21;;
46749;Laerm;33775;47.992;11.864;2024-01-06T05:19:40;36.59;30.89;39.46;;
46749;Laerm;33775;47.992;11.864;2024-01-06T05:22:05;36.59;30.89;39.34;;
46749;Laerm;33775;47.992;11.864;2024-01-06T05:24:31;36.58;30.89;39.70;;
46749;Laerm;33775;47.992;11.864;2024-01-06T05:26:56;36.59;31.68;39.46;;
46749;Laerm;33775;47.992;11.864;2024-01-06T05:29:21;36.62;30.89;39.46;;
46749;Laerm;33775;47.992;11.864;2024-01-06T05:31:46;36.67;30.89;39.34;;
46749;Laerm;33775;47.992;11.864;2024-01-06T05:34:13;36.67;31.68;39.58;;
46749;Laerm;33775;47.992;11.864;2024-01-06T05:36:39;36.63;32.35;39.34;;
46749;Laerm;33775;47.992;11.864;2024-01-06T05:39:04;36.61;29.92;39.57;;
46749;Laerm;33775;47.992;11.864;2024-01-06T05:41:29;36.61;32.35;39.46;;
46749;Laerm;33775;47.992;11.864;2024-01-06T05:43:54;36.66;30.89;39.70;;
46749;Laerm;33775;47.992;11.864;2024-01-06T05:46:23;36.66;30.89;39.81;;
46749;Laerm;33775;47.992;11.864;2024-01-06T05:48:48;36.63;30.89;39.46;;
46749;Laerm;33775;47.992;11.864;2024-01-06T05:51:14;36.64;28.67;39.70;;
46749;Laerm;33775;47.992;11.864;2024-01-06T05:53:39;36.63;29.92;39.21;;
46749;Laerm;33775;47.992;11.864;2024-01-06T05:56:04;36.61;30.89;39.70;;
46749;Laerm;33775;47.992;11.864;2024-01-06T05:58:29;36.60;30.89;39.21;;
46749;Laerm;33775;47.992;11.864;2024-01-06T06:00:55;36.60;32.35;39.46;;
46749;Laerm;33775;47.992;11.864;2024-01-06T06:03:20;36.61;30.89;39.46;;
46749;Laerm;33775;47.992;11.864;2024-01-06T06:05:45;36.60;31.68;39.58;;
46749;Laerm;33775;47.992;11.864;2024-01-06T06:08:10;36.59;29.92;39.81;;
46749;Laerm;33775;47.992;11.864;2024-01-06T06:10:35;36.61;30.89;39.70;;
46749;Laerm;33775;47.992;11.864;2024-01-06T06:13:24;36.55;28.67;39.58;;
46749;Laerm;33775;47.992;11.864;2024-01-06T06:15:49;36.53;29.92;39.21;;
46749;Laerm;33775;47.992;11.864;2024-01-06T06:18:14;36.56;28.67;39.58;;
46749;Laerm;33775;47.992;11.864;2024-01-06T06:20:40;36.57;30.89;39.46;;
46749;Laerm;33775;47.992;11.864;2024-01-06T06:23:06;36.52;29.92;40.23;;
46749;Laerm;33775;47.992;11.864;2024-01-06T06:25:31;36.55;26.91;39.70;;
46749;Laerm;33775;47.992;11.864;2024-01-06T06:27:57;36.56;31.68;39.58;;
46749;Laerm;33775;47.992;11.864;2024-01-06T06:30:22;36.55;30.89;39.46;;
46749;Laerm;33775;47.992;11.864;2024-01-06T06:32:47;36.54;30.89;39.46;;
46749;Laerm;33775;47.992;11.864;2024-01-06T06:35:12;36.54;30.89;39.92;;
46749;Laerm;33775;47.992;11.864;2024-01-06T06:37:38;36.60;30.89;39.58;;
46749;Laerm;33775;47.992;11.864;2024-01-06T06:40:03;36.60;30.89;40.03;;
46749;Laerm;33775;47.992;11.864;2024-01-06T06:42:28;36.59;31.68;39.58;;
46749;Laerm;33775;47.992;11.864;2024-01-06T06:44:53;36.62;31.68;39.58;;
46749;Laerm;33775;47.992;11.864;2024-01-06T06:47:18;36.58;30.89;39.21;;
46749;Laerm;33775;47.992;11.864;2024-01-06T06:49:44;36.61;31.68;39.81;;
46749;Laerm;33775;47.992;11.864;2024-01-06T06:52:09;36.60;29.92;39.46;;
46749;Laerm;33775;47.992;11.864;2024-01-06T06:54:34;36.61;31.68;39.81;;
46749;Laerm;33775;47.992;11.864;2024-01-06T06:57:00;36.61;32.35;39.78;;
46749;Laerm;33775;47.992;11.864;2024-01-06T06:59:25;36.59;31.68;39.58;;
46749;Laerm;33775;47.992;11.864;2024-01-06T07:01:50;36.52;30.89;39.70;;
46749;Laerm;33775;47.992;11.864;2024-01-06T07:04:15;36.53;29.92;39.46;;
46749;Laerm;33775;47.992;11.864;2024-01-06T07:06:40;36.50;30.89;39.21;;
46749;Laerm;33775;47.992;11.864;2024-01-06T07:09:06;36.52;29.92;39.21;;
46749;Laerm;33775;47.992;11.864;2024-01-06T07:11:31;36.46;29.92;39.34;;
46749;Laerm;33775;47.992;11.864;2024-01-06T07:13:56;36.40;29.92;39.34;;
46749;Laerm;33775;47.992;11.864;2024-01-06T07:16:21;36.36;29.92;39.70;;
46749;Laerm;33775;47.992;11.864;2024-01-06T07:18:47;36.34;29.92;39.21;;
46749;Laerm;33775;47.992;11.864;2024-01-06T07:21:12;36.38;26.91;39.70;;
46749;Laerm;33775;47.992;11.864;2024-01-06T07:23:37;36.42;29.92;39.58;;
46749;Laerm;33775;47.992;11.864;2024-01-06T07:26:02;36.45;30.89;39.46;;
46749;Laerm;33775;47.992;11.864;2024-01-06T07:28:28;36.40;30.54;39.34;;
46749;Laerm;33775;47.992;11.864;2024-01-06T07:30:54;36.45;30.89;39.21;;
46749;Laerm;33775;47.992;11.864;2024-01-06T07:33:19;36.46;28.32;39.34;;
46749;Laerm;33775;47.992;11.864;2024-01-06T07:35:45;36.46;30.89;39.92;;
46749;Laerm;33775;47.992;11.864;2024-01-06T07:38:11;36.48;28.67;39.58;;
46749;Laerm;33775;47.992;11.864;2024-01-06T07:40:36;36.51;30.89;39.46;;
46749;Laerm;33775;47.992;11.864;2024-01-06T07:43:01;36.52;31.68;39.34;;
46749;Laerm;33775;47.992;11.864;2024-01-06T07:45:27;36.54;29.92;39.34;;
46749;Laerm;33775;47.992;11.864;2024-01-06T07:47:52;36.56;31.68;39.21;;
46749;Laerm;33775;47.992;11.864;2024-01-06T07:50:17;36.58;31.68;39.46;;
46749;Laerm;33775;47.992;11.864;2024-01-06T07:52:42;36.53;29.92;39.34;;
46749;Laerm;33775;47.992;11.864;2024-01-06T07:55:07;36.46;30.89;39.21;;
46749;Laerm;33775;47.992;11.864;2024-01-06T07:57:33;36.49;32.35;39.46;;
46749;Laerm;33775;47.992;11.864;2024-01-06T07:59:58;36.52;30.89;39.21;;
46749;Laerm;33775;47.992;11.864;2024-01-06T08:02:23;36.55;29.92;39.46;;
46749;Laerm;33775;47.992;11.864;2024-01-06T08:04:48;36.52;32.35;39.70;;
46749;Laerm;33775;47.992;11.864;2024-01-06T08:07:14;36.50;29.92;39.46;;
46749;Laerm;33775;47.992;11.864;2024-01-06T08:09:39;36.55;31.68;39.81;;
46749;Laerm;33775;47.992;11.864;2024-01-06T08:12:04;36.51;30.89;39.46;;
46749;Laerm;33775;47.992;11.864;2024-01-06T08:14:29;36.55;30.89;39.21;;
46749;Laerm;33775;47.992;11.864;2024-01-06T08:16:55;36.51;30.89;39.21;;
46749;Laerm;33775;47.992;11.864;2024-01-06T08:19:20;36.48;28.67;39.34;;
46749;Laerm;33775;47.992;11.864;2024-01-06T08:21:45;36.49;29.92;39.70;;
46749;Laerm;33775;47.992;11.864;2024-01-06T08:24:10;36.53;29.92;39.21;;
46749;Laerm;33775;47.992;11.864;2024-01-06T08:26:35;36.54;28.67;39.46;;
46749;Laerm;33775;47.992;11.864;2024-01-06T08:29:00;36.52;28.67;39.58;;
46749;Laerm;33775;47.992;11.864;2024-01-06T08:31:26;36.51;30.89;39.34;;
46749;Laerm;33775;47.992;11.864;2024-01-06T08:33:51;36.54;29.92;39.34;;
46749;Laerm;33775;47.992;11.864;2024-01-06T08:36:16;36.51;30.89;39.21;;
46749;Laerm;33775;47.992;11.864;2024-01-06T08:38:42;36.50;30.89;39.92;;
46749;Laerm;33775;47.992;11.864;2024-01-06T08:41:07;36.50;30.89;39.46;;
46749;Laerm;33775;47.992;11.864;2024-01-06T08:43:32;36.51;30.89;39.08;;
46749;Laerm;33775;47.992;11.864;2024-01-06T08:45:57;36.50;30.89;39.58;;
46749;Laerm;33775;47.992;11.864;2024-01-06T08:48:23;36.52;28.67;39.34;;
46749;Laerm;33775;47.992;11.864;2024-01-06T08:50:48;36.52;28.67;39.81;;
46749;Laerm;33775;47.992;11.864;2024-01-06T08:53:13;36.50;30.89;39.34;;
46749;Laerm;33775;47.992;11.864;2024-01-06T08:55:39;36.49;28.67;39.46;;
46749;Laerm;33775;47.992;11.864;2024-01-06T08:58:04;36.52;29.92;39.46;;
46749;Laerm;33775;47.992;11.864;2024-01-06T09:00:30;36.50;29.92;39.46;;
46749;Laerm;33775;47.992;11.864;2024-01-06T09:02:55;36.49;30.89;39.46;;
46749;Laerm;33775;47.992;11.864;2024-01-06T09:05:21;36.57;31.68;39.70;;
46749;Laerm;33775;47.992;11.864;2024-01-06T09:07:46;36.59;31.68;39.21;;
46749;Laerm;33775;47.992;11.864;2024-01-06T09:10:15;36.60;31.68;39.21;;
46749;Laerm;33775;47.992;11.864;2024-01-06T09:12:40;36.62;29.92;39.81;;
46749;Laerm;33775;47.992;11.864;2024-01-06T09:15:05;36.59;31.68;39.92;;
46749;Laerm;33775;47.992;11.864;2024-01-06T09:17:31;36.54;30.89;39.46;;
46749;Laerm;33775;47.992;11.864;2024-01-06T09:19:57;36.44;30.89;39.21;;
46749;Laerm;33775;47.992;11.864;2024-01-06T09:22:23;36.40;28.67;39.34;;
46749;Laerm;33775;47.992;11.864;2024-01-06T09:24:48;36.43;28.67;39.46;;
46749;Laerm;33775;47.992;11.864;2024-01-06T09:27:14;36.42;29.92;39.81;;
46749;Laerm;33775;47.992;11.864;2024-01-06T09:29:39;36.42;29.92;39.46;;
46749;Laerm;33775;47.992;11.864;2024-01-06T09:32:05;36.42;30.89;39.92;;
46749;Laerm;33775;47.992;11.864;2024-01-06T09:34:30;36.47;30.89;39.70;;
46749;Laerm;33775;47.992;11.864;2024-01-06T09:36:55;36.42;30.89;39.46;;
46749;Laerm;33775;47.992;11.864;2024-01-06T09:39:20;36.39;29.92;39.58;;
46749;Laerm;33775;47.992;11.864;2024-01-06T09:41:45;36.47;29.57;39.70;;
46749;Laerm;33775;47.992;11.864;2024-01-06T09:44:11;36.47;30.89;39.92;;
46749;Laerm;33775;47.992;11.864;2024-01-06T09:46:36;36.47;30.54;39.34;;
46749;Laerm;33775;47.992;11.864;2024-01-06T09:49:03;36.47;30.89;39.46;;
46749;Laerm;33775;47.992;11.864;2024-01-06T09:51:28;36.51;31.68;39.58;;
46749;Laerm;33775;47.992;11.864;2024-01-06T09:53:57;36.50;30.89;39.21;;
46749;Laerm;33775;47.992;11.864;2024-01-06T09:56:24;36.48;26.91;39.46;;
46749;Laerm;33775;47.992;11.864;2024-01-06T09:58:49;36.54;30.89;39.46;;
46749;Laerm;33775;47.992;11.864;2024-01-06T10:01:15;36.50;29.92;39.21;;
46749;Laerm;33775;47.992;11.864;2024-01-06T10:03:40;36.55;30.89;39.58;;
46749;Laerm;33775;47.992;11.864;2024-01-06T10:06:05;36.53;30.54;39.34;;
46749;Laerm;33775;47.992;11.864;2024-01-06T10:08:31;36.54;28.67;39.46;;
46749;Laerm;33775;47.992;11.864;2024-01-06T10:11:00;36.52;31.33;39.34;;
46749;Laerm;33775;47.992;11.864;2024-01-06T10:13:25;36.55;31.33;39.81;;
46749;Laerm;33775;47.992;11.864;2024-01-06T10:15:51;36.53;30.54;39.34;;
46749;Laerm;33775;47.992;11.864;2024-01-06T10:18:16;36.52;29.92;39.58;;
46749;Laerm;33775;47.992;11.864;2024-01-06T10:20:41;36.47;31.68;39.46;;
46749;Laerm;33775;47.992;11.864;2024-01-06T10:23:06;36.44;30.89;39.21;;
46749;Laerm;33775;47.992;11.864;2024-01-06T10:25:32;36.50;30.89;39.81;;
46749;Laerm;33775;47.992;11.864;2024-01-06T10:27:57;36.53;29.92;39.70;;
46749;Laerm;33775;47.992;11.864;2024-01-06T10:30:25;36.55;30.54;39.34;;
46749;Laerm;33775;47.992;11.864;2024-01-06T10:32:50;36.47;28.67;39.21;;
46749;Laerm;33775;47.992;11.864;2024-01-06T10:35:16;36.49;30.89;39.58;;
46749;Laerm;33775;47.992;11.864;2024-01-06T10:37:42;36.58;30.89;39.58;;
46749;Laerm;33775;47.992;11.864;2024-01-06T10:40:08;36.68;32.35;39.81;;
46749;Laerm;33775;47.992;11.864;2024-01-06T10:42:33;36.74;29.92;39.92;;
46749;Laerm;33775;47.992;11.864;2024-01-06T10:44:59;36.72;31.68;39.46;;
46749;Laerm;33775;47.992;11.864;2024-01-06T10:47:25;36.73;31.68;39.78;;
46749;Laerm;33775;47.992;11.864;2024-01-06T10:49:51;36.73;31.68;39.58;;
46749;Laerm;33775;47.992;11.864;2024-01-06T10:52:19;36.78;31.68;40.03;;
46749;Laerm;33775;47.992;11.864;2024-01-06T10:54:44;36.79;30.89;39.58;;
46749;Laerm;33775;47.992;11.864;2024-01-06T10:57:15;36.87;31.68;39.70;;
46749;Laerm;33775;47.992;11.864;2024-01-06T10:59:40;36.92;32.35;39.70;;
46749;Laerm;33775;47.992;11.864;2024-01-06T11:02:05;36.93;31.68;40.03;;
46749;Laerm;33775;47.992;11.864;2024-01-06T11:04:31;36.98;32.35;39.46;;
46749;Laerm;33775;47.992;11.864;2024-01-06T11:06:57;36.99;32.35;39.81;;
46749;Laerm;33775;47.992;11.864;2024-01-06T11:09:27;36.98;31.68;39.70;;
46749;Laerm;33775;47.992;11.864;2024-01-06T11:11:56;36.99;32.35;39.70;;
46749;Laerm;33775;47.992;11.864;2024-01-06T11:14:26;36.99;29.92;39.70;;
46749;Laerm;33775;47.992;11.864;2024-01-06T11:16:52;37.01;32.93;39.92;;
46749;Laerm;33775;47.992;11.864;2024-01-06T11:24:48;36.96;31.68;40.13;;
46749;Laerm;33775;47.992;11.864;2024-01-06T11:27:20;36.94;31.68;40.13;;
46749;Laerm;33775;47.992;11.864;2024-01-06T11:29:47;36.94;32.35;39.58;;
46749;Laerm;33775;47.992;11.864;2024-01-06T11:32:17;36.92;32.93;39.46;;
46749;Laerm;33775;47.992;11.864;2024-01-06T11:34:46;36.94;32.93;39.81;;
46749;Laerm;33775;47.992;11.864;2024-01-06T11:37:12;36.90;31.68;40.13;;
46749;Laerm;33775;47.992;11.864;2024-01-06T11:39:40;36.86;32.35;39.58;;
46749;Laerm;33775;47.992;11.864;2024-01-06T11:42:07;36.87;32.93;39.92;;
46749;Laerm;33775;47.992;11.864;2024-01-06T11:44:36;36.90;32.93;39.70;;
46749;Laerm;33775;47.992;11.864;2024-01-06T11:47:01;36.86;31.68;39.81;;
46749;Laerm;33775;47.992;11.864;2024-01-06T11:49:27;36.83;32.35;39.92;;
46749;Laerm;33775;47.992;11.864;2024-01-06T11:51:56;36.79;31.68;39.34;;
46749;Laerm;33775;47.992;11.864;2024-01-06T11:54:21;36.80;30.89;39.46;;
46749;Laerm;33775;47.992;11.864;2024-01-06T11:56:46;36.90;32.35;39.70;;
46749;Laerm;33775;47.992;11.864;2024-01-06T11:59:12;36.93;32.35;39.57;;
46749;Laerm;33775;47.992;11.864;2024-01-06T12:01:37;36.94;31.68;39.81;;
46749;Laerm;33775;47.992;11.864;2024-01-06T12:04:03;36.91;32.35;39.58;;
46749;Laerm;33775;47.992;11.864;2024-01-06T12:06:30;36.84;32.35;39.58;;
46749;Laerm;33775;47.992;11.864;2024-01-06T12:09:03;36.89;31.68;39.58;;
46749;Laerm;33775;47.992;11.864;2024-01-06T12:11:28;36.90;30.89;39.70;;
46749;Laerm;33775;47.992;11.864;2024-01-06T12:13:53;36.95;31.68;39.34;;
46749;Laerm;33775;47.992;11.864;2024-01-06T12:16:18;36.87;32.35;39.34;;
46749;Laerm;33775;47.992;11.864;2024-01-06T12:18:43;36.81;31.68;39.70;;
46749;Laerm;33775;47.992;11.864;2024-01-06T12:21:09;36.87;32.93;39.81;;
46749;Laerm;33775;47.992;11.864;2024-01-06T12:23:34;36.91;31.68;39.81;;
46749;Laerm;33775;47.992;11.864;2024-01-06T12:26:00;36.87;31.68;39.58;;
46749;Laerm;33775;47.992;11.864;2024-01-06T12:28:26;36.90;32.35;40.23;;
46749;Laerm;33775;47.992;11.864;2024-01-06T12:30:52;36.90;31.68;39.81;;
46749;Laerm;33775;47.992;11.864;2024-01-06T12:33:18;36.91;32.00;39.58;;
46749;Laerm;33775;47.992;11.864;2024-01-06T12:35:43;36.94;31.68;40.33;;
46749;Laerm;33775;47.992;11.864;2024-01-06T12:38:08;36.96;31.68;39.70;;
46749;Laerm;33775;47.992;11.864;2024-01-06T12:40:37;36.95;32.35;39.81;;
46749;Laerm;33775;47.992;11.864;2024-01-06T12:43:03;36.91;32.35;39.70;;
46749;Laerm;33775;47.992;11.864;2024-01-06T12:45:28;36.87;33.44;39.58;;
46749;Laerm;33775;47.992;11.864;2024-01-06T12:47:54;36.88;32.35;39.46;;
46749;Laerm;33775;47.992;11.864;2024-01-06T12:50:19;36.83;31.68;39.70;;
46749;Laerm;33775;47.992;11.864;2024-01-06T12:52:44;36.80;32.35;39.70;;
46749;Laerm;33775;47.992;11.864;2024-01-06T12:55:10;36.81;30.89;39.92;;
46749;Laerm;33775;47.992;11.864;2024-01-06T12:57:36;36.85;31.68;39.92;;
46749;Laerm;33775;47.992;11.864;2024-01-06T13:00:01;36.88;30.89;39.70;;
46749;Laerm;33775;47.992;11.864;2024-01-06T13:02:26;36.89;29.92;39.68;;
46749;Laerm;33775;47.992;11.864;2024-01-06T13:04:52;36.88;32.35;39.81;;
46749;Laerm;33775;47.992;11.864;2024-01-06T13:07:17;36.81;32.35;39.81;;
46749;Laerm;33775;47.992;11.864;2024-01-06T13:09:42;36.86;32.35;39.58;;
46749;Laerm;33775;47.992;11.864;2024-01-06T13:12:07;36.88;30.89;39.58;;
46749;Laerm;33775;47.992;11.864;2024-01-06T13:14:33;36.84;31.68;39.34;;
46749;Laerm;33775;47.992;11.864;2024-01-06T13:16:58;36.85;30.89;39.58;;
46749;Laerm;33775;47.992;11.864;2024-01-06T13:19:24;36.82;32.35;40.33;;
46749;Laerm;33775;47.992;11.864;2024-01-06T13:21:51;36.79;32.35;39.70;;
46749;Laerm;33775;47.992;11.864;2024-01-06T13:24:16;36.78;31.68;39.92;;
46749;Laerm;33775;47.992;11.864;2024-01-06T13:26:41;36.74;31.68;39.34;;
46749;Laerm;33775;47.992;11.864;2024-01-06T13:29:07;36.73;31.68;39.46;;